KHIB/HIB METAR and TAF weather

Enter ICAO airport designator
Station Type Date Time Source
KHIB METAR 2022/06/27 16:53 UTC NOAA

KHIB 271653Z AUTO VRB06KT 10SM CLR 21/10 A3018 RMK AO2 SLP224 T02060100 TSNO


Station Type Date Time Source
KHIB Decoded METAR 2022/06/27 16:53 UTC NOAA

CHISHOLM-HIBBING AIRPORT, MN, United States (KHIB) 47-23N 92-50W 412M
Jun 27, 2022 - 12:53 PM EDT / 2022.06.27 1653 UTC
Wind: Variable at 7 MPH (6 KT):0
Visibility: 10 mile(s):0
Sky conditions: clear
Temperature: 69.1 F (20.6 C)
Dew Point: 50.0 F (10.0 C)
Relative Humidity: 50%
Pressure (altimeter): 30.18 in. Hg (1022 hPa)
ob: KHIB 271653Z AUTO VRB06KT 10SM CLR 21/10 A3018 RMK AO2 SLP224 T02060100 TSNO
cycle: 17

Station Type Date Time Source
KHIB TAF 2022/06/27 12:30 UTC NOAA

TAF KHIB 271128Z 2712/2812 VRB03KT P6SM FEW200
FM271800 26008G16KT P6SM VCSH FEW050 FEW120
FM280100 24007KT P6SM FEW250
FM280900 23005KT P6SM VCSH FEW250

Example: see airport list